sensor_id;sensor_type;location;lat;lon;timestamp;pressure;altitude;pressure_sealevel;temperature;humidity
3917;BME280;1973;50.518;7.318;2023-04-01T00:01:14;98938.78;;;12.18;100.00
3917;BME280;1973;50.518;7.318;2023-04-01T00:03:41;98941.78;;;12.16;100.00
3917;BME280;1973;50.518;7.318;2023-04-01T00:06:09;98937.94;;;12.17;100.00
3917;BME280;1973;50.518;7.318;2023-04-01T00:08:37;98936.84;;;12.18;100.00
3917;BME280;1973;50.518;7.318;2023-04-01T00:11:04;98935.72;;;12.19;100.00
3917;BME280;1973;50.518;7.318;2023-04-01T00:13:30;98925.28;;;12.22;100.00
3917;BME280;1973;50.518;7.318;2023-04-01T00:15:57;98940.44;;;12.19;100.00
3917;BME280;1973;50.518;7.318;2023-04-01T00:18:25;98932.97;;;12.14;100.00
3917;BME280;1973;50.518;7.318;2023-04-01T00:20:52;98936.81;;;12.13;100.00
3917;BME280;1973;50.518;7.318;2023-04-01T00:23:19;98941.25;;;12.14;100.00
3917;BME280;1973;50.518;7.318;2023-04-01T00:25:46;98941.25;;;12.19;100.00
3917;BME280;1973;50.518;7.318;2023-04-01T00:28:16;98942.06;;;12.20;100.00
3917;BME280;1973;50.518;7.318;2023-04-01T00:30:43;98929.94;;;12.21;100.00
3917;BME280;1973;50.518;7.318;2023-04-01T00:33:09;98939.03;;;12.16;100.00
3917;BME280;1973;50.518;7.318;2023-04-01T00:35:36;98937.94;;;12.17;100.00
3917;BME280;1973;50.518;7.318;2023-04-01T00:38:04;98951.16;;;12.10;100.00
3917;BME280;1973;50.518;7.318;2023-04-01T00:40:36;98935.16;;;12.12;100.00
3917;BME280;1973;50.518;7.318;2023-04-01T00:43:10;98951.19;;;12.15;100.00
3917;BME280;1973;50.518;7.318;2023-04-01T00:45:42;98932.44;;;12.17;100.00
3917;BME280;1973;50.518;7.318;2023-04-01T00:48:13;98929.13;;;12.20;100.00
3917;BME280;1973;50.518;7.318;2023-04-01T00:50:44;98937.41;;;12.20;100.00
3917;BME280;1973;50.518;7.318;2023-04-01T00:53:12;98936.28;;;12.16;100.00
3917;BME280;1973;50.518;7.318;2023-04-01T00:55:43;98929.94;;;12.16;100.00
3917;BME280;1973;50.518;7.318;2023-04-01T00:58:14;98932.69;;;12.11;100.00
3917;BME280;1973;50.518;7.318;2023-04-01T01:00:43;98929.38;;;12.14;100.00
3917;BME280;1973;50.518;7.318;2023-04-01T01:03:11;98945.69;;;12.15;100.00
3917;BME280;1973;50.518;7.318;2023-04-01T01:06:08;98931.84;;;12.05;100.00
3917;BME280;1973;50.518;7.318;2023-04-01T01:08:52;98931.84;;;12.05;100.00
3917;BME280;1973;50.518;7.318;2023-04-01T01:11:31;98926.59;;;12.04;100.00
3917;BME280;1973;50.518;7.318;2023-04-01T01:14:16;98930.47;;;12.03;100.00
3917;BME280;1973;50.518;7.318;2023-04-01T01:16:48;98926.59;;;12.04;100.00
3917;BME280;1973;50.518;7.318;2023-04-01T01:27:23;98921.59;;;11.96;100.00
3917;BME280;1973;50.518;7.318;2023-04-01T01:32:38;98928.50;;;11.93;100.00
3917;BME280;1973;50.518;7.318;2023-04-01T01:35:19;98925.19;;;11.96;100.00
3917;BME280;1973;50.518;7.318;2023-04-01T01:37:47;98918.59;;;12.02;100.00
3917;BME280;1973;50.518;7.318;2023-04-01T01:40:16;98925.19;;;11.96;100.00
3917;BME280;1973;50.518;7.318;2023-04-01T01:42:46;98913.34;;;11.96;100.00
3917;BME280;1973;50.518;7.318;2023-04-01T01:45:16;98917.75;;;11.97;100.00
3917;BME280;1973;50.518;7.318;2023-04-01T01:47:45;98908.09;;;11.94;100.00
3917;BME280;1973;50.518;7.318;2023-04-01T01:50:14;98905.88;;;11.91;100.00
3917;BME280;1973;50.518;7.318;2023-04-01T01:52:41;98932.34;;;11.92;100.00
3917;BME280;1973;50.518;7.318;2023-04-01T01:55:32;98904.50;;;11.94;100.00
3917;BME280;1973;50.518;7.318;2023-04-01T02:00:34;98910.00;;;11.94;100.00
3917;BME280;1973;50.518;7.318;2023-04-01T02:03:01;98907.81;;;11.96;100.00
3917;BME280;1973;50.518;7.318;2023-04-01T02:05:29;98916.34;;;11.94;100.00
3917;BME280;1973;50.518;7.318;2023-04-01T02:08:03;98907.00;;;11.95;100.00
3917;BME280;1973;50.518;7.318;2023-04-01T02:10:36;98904.22;;;11.95;100.00
3917;BME280;1973;50.518;7.318;2023-04-01T02:13:14;98907.00;;;11.95;100.00
3917;BME280;1973;50.518;7.318;2023-04-01T02:15:45;98908.63;;;11.91;100.00
3917;BME280;1973;50.518;7.318;2023-04-01T02:18:15;98911.34;;;11.86;100.00
3917;BME280;1973;50.518;7.318;2023-04-01T02:20:42;98906.13;;;11.85;100.00
3917;BME280;1973;50.518;7.318;2023-04-01T02:23:11;98906.97;;;11.85;100.00
3917;BME280;1973;50.518;7.318;2023-04-01T02:25:38;98902.50;;;11.79;100.00
3917;BME280;1973;50.518;7.318;2023-04-01T02:28:07;98900.34;;;11.81;100.00
3917;BME280;1973;50.518;7.318;2023-04-01T02:30:36;98902.28;;;11.86;100.00
3917;BME280;1973;50.518;7.318;2023-04-01T02:33:05;98890.41;;;11.85;100.00
3917;BME280;1973;50.518;7.318;2023-04-01T02:35:36;98894.25;;;11.79;100.00
3917;BME280;1973;50.518;7.318;2023-04-01T02:38:04;98904.69;;;11.72;100.00
3917;BME280;1973;50.518;7.318;2023-04-01T02:40:51;98901.94;;;11.72;100.00
3917;BME280;1973;50.518;7.318;2023-04-01T02:43:22;98904.69;;;11.72;100.00
3917;BME280;1973;50.518;7.318;2023-04-01T02:45:49;98903.28;;;11.69;100.00
3917;BME280;1973;50.518;7.318;2023-04-01T02:48:15;98896.94;;;11.69;100.00
3917;BME280;1973;50.518;7.318;2023-04-01T02:50:42;98897.78;;;11.69;100.00
3917;BME280;1973;50.518;7.318;2023-04-01T02:53:08;98897.78;;;11.69;100.00
3917;BME280;1973;50.518;7.318;2023-04-01T02:55:35;98905.19;;;11.64;100.00
3917;BME280;1973;50.518;7.318;2023-04-01T02:58:01;98891.41;;;11.69;100.00
3917;BME280;1973;50.518;7.318;2023-04-01T03:00:28;98900.78;;;11.68;100.00
3917;BME280;1973;50.518;7.318;2023-04-01T03:02:55;98913.47;;;11.64;100.00
3917;BME280;1973;50.518;7.318;2023-04-01T03:05:23;98891.97;;;11.66;100.00
3917;BME280;1973;50.518;7.318;2023-04-01T03:07:50;98901.88;;;11.62;100.00
3917;BME280;1973;50.518;7.318;2023-04-01T03:10:16;98902.16;;;11.65;100.00
3917;BME280;1973;50.518;7.318;2023-04-01T03:12:43;98895.28;;;11.63;100.00
3917;BME280;1973;50.518;7.318;2023-04-01T03:15:11;98900.19;;;11.61;100.00
3917;BME280;1973;50.518;7.318;2023-04-01T03:17:38;98895.53;;;11.61;100.00
3917;BME280;1973;50.518;7.318;2023-04-01T03:20:05;98902.13;;;11.60;100.00
3917;BME280;1973;50.518;7.318;2023-04-01T03:22:32;98898.56;;;11.60;100.00
3917;BME280;1973;50.518;7.318;2023-04-01T03:24:58;98902.16;;;11.65;100.00
3917;BME280;1973;50.518;7.318;2023-04-01T03:27:25;98901.63;;;11.63;100.00
3917;BME280;1973;50.518;7.318;2023-04-01T03:29:51;98901.06;;;11.66;100.00
3917;BME280;1973;50.518;7.318;2023-04-01T03:32:18;98894.72;;;11.66;100.00
3917;BME280;1973;50.518;7.318;2023-04-01T03:34:45;98902.44;;;11.64;100.00
3917;BME280;1973;50.518;7.318;2023-04-01T03:37:11;98888.38;;;11.65;100.00
3917;BME280;1973;50.518;7.318;2023-04-01T03:39:38;98900.50;;;11.64;100.00
3917;BME280;1973;50.518;7.318;2023-04-01T03:42:04;98896.94;;;11.64;100.00
3917;BME280;1973;50.518;7.318;2023-04-01T03:44:33;98898.56;;;11.60;100.00
3917;BME280;1973;50.518;7.318;2023-04-01T03:47:00;98895.28;;;11.63;100.00
3917;BME280;1973;50.518;7.318;2023-04-01T03:49:26;98898.56;;;11.65;100.00
3917;BME280;1973;50.518;7.318;2023-04-01T03:51:53;98896.38;;;11.67;100.00
3917;BME280;1973;50.518;7.318;2023-04-01T03:54:19;98890.91;;;11.72;100.00
3917;BME280;1973;50.518;7.318;2023-04-01T03:56:46;98888.16;;;11.72;100.00
3917;BME280;1973;50.518;7.318;2023-04-01T03:59:13;98890.59;;;11.63;100.00
3917;BME280;1973;50.518;7.318;2023-04-01T04:01:39;98893.88;;;11.65;100.00
3917;BME280;1973;50.518;7.318;2023-04-01T04:04:06;98890.31;;;11.65;100.00
3917;BME280;1973;50.518;7.318;2023-04-01T04:06:33;98890.00;;;11.61;100.00
3917;BME280;1973;50.518;7.318;2023-04-01T04:08:59;98892.47;;;11.58;100.00
3917;BME280;1973;50.518;7.318;2023-04-01T04:11:26;98888.06;;;11.57;100.00
3917;BME280;1973;50.518;7.318;2023-04-01T04:13:52;98889.47;;;11.64;100.00
3917;BME280;1973;50.518;7.318;2023-04-01T04:16:21;98892.22;;;11.64;100.00
3917;BME280;1973;50.518;7.318;2023-04-01T04:18:48;98886.75;;;11.69;100.00
3917;BME280;1973;50.518;7.318;2023-04-01T04:21:15;98879.88;;;11.72;100.00
3917;BME280;1973;50.518;7.318;2023-04-01T04:23:42;98880.41;;;11.69;100.00
3917;BME280;1973;50.518;7.318;2023-04-01T04:26:14;98894.19;;;11.69;100.00
3917;BME280;1973;50.518;7.318;2023-04-01T04:28:40;98891.75;;;11.73;100.00
3917;BME280;1973;50.518;7.318;2023-04-01T04:31:07;98888.97;;;11.67;100.00
3917;BME280;1973;50.518;7.318;2023-04-01T04:33:35;98892.25;;;11.69;100.00
3917;BME280;1973;50.518;7.318;2023-04-01T04:36:03;98901.63;;;11.68;100.00
3917;BME280;1973;50.518;7.318;2023-04-01T04:38:30;98898.31;;;11.66;100.00
3917;BME280;1973;50.518;7.318;2023-04-01T04:40:56;98907.44;;;11.72;100.00
3917;BME280;1973;50.518;7.318;2023-04-01T04:43:23;98912.63;;;11.63;100.00
3917;BME280;1973;50.518;7.318;2023-04-01T04:45:49;98903.81;;;11.66;100.00
3917;BME280;1973;50.518;7.318;2023-04-01T04:48:16;98900.53;;;11.69;100.00
3917;BME280;1973;50.518;7.318;2023-04-01T04:50:49;98922.06;;;11.73;100.00
3917;BME280;1973;50.518;7.318;2023-04-01T04:53:17;98900.78;;;11.68;100.00
3917;BME280;1973;50.518;7.318;2023-04-01T04:55:45;98913.47;;;11.69;100.00
3917;BME280;1973;50.518;7.318;2023-04-01T04:58:12;98920.91;;;11.63;100.00
3917;BME280;1973;50.518;7.318;2023-04-01T05:00:39;98903.81;;;11.66;100.00
3917;BME280;1973;50.518;7.318;2023-04-01T05:03:05;98913.44;;;11.59;100.00
3917;BME280;1973;50.518;7.318;2023-04-01T05:05:32;98916.47;;;11.62;100.00
3917;BME280;1973;50.518;7.318;2023-04-01T05:07:59;98911.56;;;11.69;100.00
3917;BME280;1973;50.518;7.318;2023-04-01T05:10:25;98916.75;;;11.61;100.00
3917;BME280;1973;50.518;7.318;2023-04-01T05:12:52;98917.88;;;11.65;100.00
3917;BME280;1973;50.518;7.318;2023-04-01T05:15:18;98915.69;;;11.67;100.00
3917;BME280;1973;50.518;7.318;2023-04-01T05:17:45;98910.16;;;11.67;100.00
3917;BME280;1973;50.518;7.318;2023-04-01T05:20:12;98910.16;;;11.67;100.00
3917;BME280;1973;50.518;7.318;2023-04-01T05:22:39;98912.97;;;11.72;100.00
3917;BME280;1973;50.518;7.318;2023-04-01T05:25:06;98911.31;;;11.71;100.00
3917;BME280;1973;50.518;7.318;2023-04-01T05:27:33;98911.63;;;11.75;100.00
3917;BME280;1973;50.518;7.318;2023-04-01T05:29:59;98912.41;;;11.75;100.00
3917;BME280;1973;50.518;7.318;2023-04-01T05:32:26;98915.75;;;11.77;100.00
3917;BME280;1973;50.518;7.318;2023-04-01T05:34:53;98906.91;;;11.75;100.00
3917;BME280;1973;50.518;7.318;2023-04-01T05:37:19;98910.50;;;11.76;100.00
3917;BME280;1973;50.518;7.318;2023-04-01T05:39:46;98915.47;;;11.74;100.00
3917;BME280;1973;50.518;7.318;2023-04-01T05:42:12;98919.88;;;11.80;100.00
3917;BME280;1973;50.518;7.318;2023-04-01T05:44:39;98921.81;;;11.79;100.00
3917;BME280;1973;50.518;7.318;2023-04-01T05:47:06;98919.91;;;11.85;100.00
3917;BME280;1973;50.518;7.318;2023-04-01T05:49:33;98925.69;;;11.83;100.00
3917;BME280;1973;50.518;7.318;2023-04-01T05:51:59;98929.56;;;11.82;100.00
3917;BME280;1973;50.518;7.318;2023-04-01T05:54:26;98926.81;;;11.87;100.00
3917;BME280;1973;50.518;7.318;2023-04-01T05:56:52;98928.22;;;11.90;100.00
3917;BME280;1973;50.518;7.318;2023-04-01T05:59:19;98929.06;;;11.95;100.00
3917;BME280;1973;50.518;7.318;2023-04-01T06:01:45;98932.34;;;11.92;100.00
3917;BME280;1973;50.518;7.318;2023-04-01T06:04:17;98937.56;;;11.94;100.00
3917;BME280;1973;50.518;7.318;2023-04-01T06:06:44;98933.72;;;11.95;100.00
3917;BME280;1973;50.518;7.318;2023-04-01T06:09:14;98927.94;;;11.91;100.00
3917;BME280;1973;50.518;7.318;2023-04-01T06:11:55;98936.78;;;11.93;100.00
3917;BME280;1973;50.518;7.318;2023-04-01T06:17:09;98936.78;;;11.93;100.00
3917;BME280;1973;50.518;7.318;2023-04-01T06:19:52;98938.97;;;11.91;100.00
3917;BME280;1973;50.518;7.318;2023-04-01T06:25:18;98934.03;;;11.93;100.00
3917;BME280;1973;50.518;7.318;2023-04-01T06:38:51;98939.56;;;12.08;100.00
3917;BME280;1973;50.518;7.318;2023-04-01T06:44:39;98947.56;;;12.10;100.00
3917;BME280;1973;50.518;7.318;2023-04-01T06:50:24;98952.28;;;12.19;100.00
3917;BME280;1973;50.518;7.318;2023-04-01T06:55:55;98960.28;;;12.16;100.00
3917;BME280;1973;50.518;7.318;2023-04-01T06:58:27;98958.34;;;12.16;100.00
3917;BME280;1973;50.518;7.318;2023-04-01T07:01:02;98953.97;;;12.26;100.00
3917;BME280;1973;50.518;7.318;2023-04-01T07:03:36;98969.44;;;12.32;100.00
3917;BME280;1973;50.518;7.318;2023-04-01T07:06:09;98963.94;;;12.37;100.00
3917;BME280;1973;50.518;7.318;2023-04-01T07:08:40;98962.81;;;12.33;100.00
3917;BME280;1973;50.518;7.318;2023-04-01T07:11:11;98970.00;;;12.34;100.00
3917;BME280;1973;50.518;7.318;2023-04-01T07:13:47;98969.16;;;12.33;100.00
3917;BME280;1973;50.518;7.318;2023-04-01T07:16:19;98972.75;;;12.34;100.00
3917;BME280;1973;50.518;7.318;2023-04-01T07:18:53;98962.56;;;12.39;100.00
3917;BME280;1973;50.518;7.318;2023-04-01T07:21:34;98960.94;;;12.48;100.00
3917;BME280;1973;50.518;7.318;2023-04-01T07:24:10;98967.00;;;12.55;100.00
3917;BME280;1973;50.518;7.318;2023-04-01T07:26:39;98964.50;;;12.54;100.00
3917;BME280;1973;50.518;7.318;2023-04-01T07:29:12;98965.06;;;12.61;100.00
3917;BME280;1973;50.518;7.318;2023-04-01T07:37:16;98981.66;;;12.71;100.00
3917;BME280;1973;50.518;7.318;2023-04-01T07:40:03;98983.88;;;12.74;100.00
3917;BME280;1973;50.518;7.318;2023-04-01T07:53:36;98987.19;;;12.91;100.00
3917;BME280;1973;50.518;7.318;2023-04-01T08:01:35;98995.50;;;13.06;100.00
3917;BME280;1973;50.518;7.318;2023-04-01T08:04:22;98992.78;;;13.11;100.00
3917;BME280;1973;50.518;7.318;2023-04-01T08:07:00;99001.28;;;12.95;100.00
3917;BME280;1973;50.518;7.318;2023-04-01T08:09:41;99000.19;;;12.96;100.00
3917;BME280;1973;50.518;7.318;2023-04-01T08:12:33;98999.63;;;12.99;100.00
3917;BME280;1973;50.518;7.318;2023-04-01T08:15:21;98993.31;;;13.13;100.00
3917;BME280;1973;50.518;7.318;2023-04-01T08:20:58;98991.91;;;13.36;100.00
3917;BME280;1973;50.518;7.318;2023-04-01T08:23:30;99002.16;;;13.41;100.00
3917;BME280;1973;50.518;7.318;2023-04-01T08:28:54;99019.28;;;13.23;100.00
3917;BME280;1973;50.518;7.318;2023-04-01T08:31:36;99018.72;;;13.36;100.00
3917;BME280;1973;50.518;7.318;2023-04-01T08:34:08;99010.97;;;13.38;100.00
3917;BME280;1973;50.518;7.318;2023-04-01T08:36:41;99009.31;;;13.52;100.00
3917;BME280;1973;50.518;7.318;2023-04-01T08:39:13;99010.69;;;13.49;100.00
3917;BME280;1973;50.518;7.318;2023-04-01T08:46:11;99039.19;;;13.45;100.00
3917;BME280;1973;50.518;7.318;2023-04-01T08:48:30;99026.19;;;13.40;100.00
3917;BME280;1973;50.518;7.318;2023-04-01T08:51:23;99040.00;;;13.40;100.00
3917;BME280;1973;50.518;7.318;2023-04-01T09:02:38;99035.03;;;13.47;100.00
3917;BME280;1973;50.518;7.318;2023-04-01T09:05:34;99046.91;;;13.58;100.00
3917;BME280;1973;50.518;7.318;2023-04-01T09:13:31;99044.69;;;13.70;100.00
3917;BME280;1973;50.518;7.318;2023-04-01T09:16:16;99050.19;;;13.65;100.00
3917;BME280;1973;50.518;7.318;2023-04-01T09:19:06;99062.09;;;13.71;100.00
3917;BME280;1973;50.518;7.318;2023-04-01T09:21:46;99047.16;;;13.77;100.00
3917;BME280;1973;50.518;7.318;2023-04-01T09:27:26;99055.19;;;13.78;100.00
3917;BME280;1973;50.518;7.318;2023-04-01T09:36:03;99072.34;;;13.70;100.00
3917;BME280;1973;50.518;7.318;2023-04-01T09:41:31;99062.63;;;13.83;100.00
3917;BME280;1973;50.518;7.318;2023-04-01T09:44:03;99066.19;;;13.98;100.00
3917;BME280;1973;50.518;7.318;2023-04-01T09:52:51;99069.53;;;13.95;100.00
3917;BME280;1973;50.518;7.318;2023-04-01T10:06:57;99074.44;;;14.19;100.00
3917;BME280;1973;50.518;7.318;2023-04-01T10:09:56;99082.19;;;14.17;100.00
3917;BME280;1973;50.518;7.318;2023-04-01T10:12:47;99100.41;;;14.28;100.00
3917;BME280;1973;50.518;7.318;2023-04-01T10:18:18;99103.75;;;14.25;97.39
3917;BME280;1973;50.518;7.318;2023-04-01T10:26:36;99096.56;;;14.24;99.72
3917;BME280;1973;50.518;7.318;2023-04-01T10:36:34;99123.44;;;14.08;100.00
3917;BME280;1973;50.518;7.318;2023-04-01T10:38:52;99124.28;;;13.98;100.00
3917;BME280;1973;50.518;7.318;2023-04-01T10:41:29;99127.31;;;13.97;100.00
3917;BME280;1973;50.518;7.318;2023-04-01T10:47:26;99116.84;;;13.89;100.00
3917;BME280;1973;50.518;7.318;2023-04-01T10:50:19;99120.16;;;13.96;100.00
3917;BME280;1973;50.518;7.318;2023-04-01T11:30:16;99134.16;;;14.45;100.00
3917;BME280;1973;50.518;7.318;2023-04-01T11:32:54;99138.03;;;14.54;100.00
3917;BME280;1973;50.518;7.318;2023-04-01T11:35:35;99137.50;;;14.52;100.00
3917;BME280;1973;50.518;7.318;2023-04-01T11:38:19;99130.81;;;14.63;100.00
3917;BME280;1973;50.518;7.318;2023-04-01T11:43:47;99137.97;;;14.74;100.00
3917;BME280;1973;50.518;7.318;2023-04-01T11:46:23;99140.97;;;14.78;100.00
3917;BME280;1973;50.518;7.318;2023-04-01T11:49:00;99130.69;;;14.83;100.00
3917;BME280;1973;50.518;7.318;2023-04-01T12:02:43;99156.59;;;14.48;100.00
3917;BME280;1973;50.518;7.318;2023-04-01T12:10:40;99174.03;;;14.59;100.00
3917;BME280;1973;50.518;7.318;2023-04-01T12:16:11;99169.53;;;14.73;100.00
3917;BME280;1973;50.518;7.318;2023-04-01T12:22:03;99182.75;;;14.91;100.00
3917;BME280;1973;50.518;7.318;2023-04-01T12:24:46;99177.69;;;15.08;100.00
3917;BME280;1973;50.518;7.318;2023-04-01T12:28:03;99182.56;;;15.27;100.00
3917;BME280;1973;50.518;7.318;2023-04-01T12:39:13;99188.81;;;15.03;100.00
3917;BME280;1973;50.518;7.318;2023-04-01T12:52:54;99191.13;;;14.76;100.00
3917;BME280;1973;50.518;7.318;2023-04-01T12:55:39;99208.34;;;14.63;100.00
3917;BME280;1973;50.518;7.318;2023-04-01T13:01:23;99201.69;;;14.64;100.00
3917;BME280;1973;50.518;7.318;2023-04-01T13:12:34;99214.28;;;15.00;100.00
3917;BME280;1973;50.518;7.318;2023-04-01T13:21:19;99217.06;;;15.05;100.00
3917;BME280;1973;50.518;7.318;2023-04-01T13:23:55;99215.97;;;15.01;100.00
3917;BME280;1973;50.518;7.318;2023-04-01T13:26:33;99217.63;;;14.97;100.00
3917;BME280;1973;50.518;7.318;2023-04-01T13:29:18;99224.88;;;14.88;100.00
3917;BME280;1973;50.518;7.318;2023-04-01T13:34:39;99234.88;;;14.79;100.00
3917;BME280;1973;50.518;7.318;2023-04-01T13:37:19;99238.22;;;14.71;100.00
3917;BME280;1973;50.518;7.318;2023-04-01T13:40:04;99234.91;;;14.69;100.00
3917;BME280;1973;50.518;7.318;2023-04-01T13:42:45;99241.00;;;14.76;100.00
3917;BME280;1973;50.518;7.318;2023-04-01T13:45:22;99240.94;;;14.86;100.00
3917;BME280;1973;50.518;7.318;2023-04-01T13:50:31;99248.44;;;14.86;100.00
3917;BME280;1973;50.518;7.318;2023-04-01T13:55:43;99246.22;;;14.83;100.00
3917;BME280;1973;50.518;7.318;2023-04-01T13:58:32;99259.53;;;14.76;100.00
3917;BME280;1973;50.518;7.318;2023-04-01T14:12:41;99272.63;;;14.35;100.00
3917;BME280;1973;50.518;7.318;2023-04-01T14:15:31;99262.38;;;14.35;100.00
3917;BME280;1973;50.518;7.318;2023-04-01T14:21:17;99266.50;;;14.28;100.00
3917;BME280;1973;50.518;7.318;2023-04-01T14:27:06;99277.84;;;14.16;100.00
3917;BME280;1973;50.518;7.318;2023-04-01T14:30:04;99277.59;;;14.18;100.00
3917;BME280;1973;50.518;7.318;2023-04-01T14:35:35;99285.59;;;14.19;100.00
3917;BME280;1973;50.518;7.318;2023-04-01T14:38:37;99290.59;;;14.22;100.00
3917;BME280;1973;50.518;7.318;2023-04-01T14:44:38;99301.38;;;14.24;100.00
3917;BME280;1973;50.518;7.318;2023-04-01T14:47:24;99292.53;;;14.27;100.00
3917;BME280;1973;50.518;7.318;2023-04-01T14:50:29;99298.63;;;14.24;100.00
3917;BME280;1973;50.518;7.318;2023-04-01T14:58:16;99306.94;;;14.29;100.00
3917;BME280;1973;50.518;7.318;2023-04-01T15:03:53;99313.59;;;14.33;100.00
3917;BME280;1973;50.518;7.318;2023-04-01T15:11:55;99322.44;;;14.45;100.00
3917;BME280;1973;50.518;7.318;2023-04-01T15:23:23;99322.75;;;14.48;100.00
3917;BME280;1973;50.518;7.318;2023-04-01T15:26:11;99331.88;;;14.44;100.00
3917;BME280;1973;50.518;7.318;2023-04-01T15:28:49;99335.22;;;14.41;100.00
3917;BME280;1973;50.518;7.318;2023-04-01T15:31:29;99341.56;;;14.36;100.00
3917;BME280;1973;50.518;7.318;2023-04-01T15:39:11;99346.78;;;14.28;100.00
3917;BME280;1973;50.518;7.318;2023-04-01T15:42:23;99345.97;;;14.22;100.00
3917;BME280;1973;50.518;7.318;2023-04-01T15:50:03;99364.19;;;14.08;100.00
3917;BME280;1973;50.518;7.318;2023-04-01T16:03:43;99387.59;;;13.65;100.00
3917;BME280;1973;50.518;7.318;2023-04-01T16:06:31;99388.69;;;13.64;100.00
3917;BME280;1973;50.518;7.318;2023-04-01T16:11:41;99384.78;;;13.60;100.00
3917;BME280;1973;50.518;7.318;2023-04-01T16:14:21;99392.50;;;13.53;100.00
3917;BME280;1973;50.518;7.318;2023-04-01T16:17:11;99393.63;;;13.52;100.00
3917;BME280;1973;50.518;7.318;2023-04-01T16:22:39;99399.94;;;13.47;100.00
3917;BME280;1973;50.518;7.318;2023-04-01T16:25:20;99406.31;;;13.48;100.00
3917;BME280;1973;50.518;7.318;2023-04-01T16:28:02;99412.69;;;13.48;100.00
3917;BME280;1973;50.518;7.318;2023-04-01T16:30:36;99412.69;;;13.48;100.00
3917;BME280;1973;50.518;7.318;2023-04-01T16:33:13;99411.84;;;13.48;100.00
3917;BME280;1973;50.518;7.318;2023-04-01T16:35:56;99417.38;;;13.53;100.00
3917;BME280;1973;50.518;7.318;2023-04-01T16:38:38;99419.06;;;13.54;100.00
3917;BME280;1973;50.518;7.318;2023-04-01T16:41:12;99422.13;;;13.57;100.00
3917;BME280;1973;50.518;7.318;2023-04-01T16:44:28;99426.56;;;13.58;100.00
3917;BME280;1973;50.518;7.318;2023-04-01T16:46:40;99438.69;;;13.57;100.00
3917;BME280;1973;50.518;7.318;2023-04-01T16:57:26;99470.41;;;13.40;100.00
3917;BME280;1973;50.518;7.318;2023-04-01T17:00:15;99468.97;;;13.32;100.00
3917;BME280;1973;50.518;7.318;2023-04-01T17:06:01;99479.53;;;13.08;100.00
3917;BME280;1973;50.518;7.318;2023-04-01T17:11:18;99485.25;;;12.97;100.00
3917;BME280;1973;50.518;7.318;2023-04-01T17:22:21;99507.31;;;12.65;100.00
3917;BME280;1973;50.518;7.318;2023-04-01T17:28:02;99510.19;;;12.48;100.00
3917;BME280;1973;50.518;7.318;2023-04-01T17:33:30;99530.94;;;12.29;100.00
3917;BME280;1973;50.518;7.318;2023-04-01T17:38:54;99540.50;;;12.22;100.00
3917;BME280;1973;50.518;7.318;2023-04-01T17:41:41;99535.00;;;12.22;100.00
3917;BME280;1973;50.518;7.318;2023-04-01T17:47:25;99551.44;;;12.11;100.00
3917;BME280;1973;50.518;7.318;2023-04-01T17:52:39;99550.28;;;12.07;100.00
3917;BME280;1973;50.518;7.318;2023-04-01T17:55:31;99559.38;;;12.08;100.00
3917;BME280;1973;50.518;7.318;2023-04-01T18:00:50;99566.75;;;12.02;100.00
3917;BME280;1973;50.518;7.318;2023-04-01T18:06:14;99574.44;;;12.00;100.00
3917;BME280;1973;50.518;7.318;2023-04-01T18:08:57;99575.53;;;11.99;100.00
3917;BME280;1973;50.518;7.318;2023-04-01T18:14:37;99585.41;;;11.95;100.00
3917;BME280;1973;50.518;7.318;2023-04-01T18:17:30;99593.91;;;11.94;100.00
3917;BME280;1973;50.518;7.318;2023-04-01T18:22:42;99594.75;;;11.94;100.00
3917;BME280;1973;50.518;7.318;2023-04-01T18:25:40;99596.94;;;11.92;100.00
3917;BME280;1973;50.518;7.318;2023-04-01T18:30:55;99611.81;;;11.91;100.00
3917;BME280;1973;50.518;7.318;2023-04-01T18:33:32;99617.34;;;11.91;100.00
3917;BME280;1973;50.518;7.318;2023-04-01T18:38:52;99622.53;;;11.88;100.00
3917;BME280;1973;50.518;7.318;2023-04-01T18:44:05;99632.72;;;11.87;100.00
3917;BME280;1973;50.518;7.318;2023-04-01T18:49:43;99645.09;;;11.85;100.00
3917;BME280;1973;50.518;7.318;2023-04-01T18:58:22;99649.69;;;11.79;100.00
3917;BME280;1973;50.518;7.318;2023-04-01T19:01:01;99650.78;;;11.78;100.00
3917;BME280;1973;50.518;7.318;2023-04-01T19:03:48;99660.97;;;11.78;100.00
3917;BME280;1973;50.518;7.318;2023-04-01T19:09:25;99668.91;;;11.74;100.00
3917;BME280;1973;50.518;7.318;2023-04-01T19:12:12;99671.91;;;11.73;100.00
3917;BME280;1973;50.518;7.318;2023-04-01T19:17:52;99673.13;;;11.65;100.00
3917;BME280;1973;50.518;7.318;2023-04-01T19:20:27;99678.59;;;11.60;100.00
3917;BME280;1973;50.518;7.318;2023-04-01T19:25:51;99682.31;;;11.54;100.00
3917;BME280;1973;50.518;7.318;2023-04-01T19:34:26;99688.00;;;11.47;100.00
3917;BME280;1973;50.518;7.318;2023-04-01T19:36:57;99690.75;;;11.47;100.00
3917;BME280;1973;50.518;7.318;2023-04-01T19:42:28;99696.25;;;11.47;100.00
3917;BME280;1973;50.518;7.318;2023-04-01T19:53:45;99703.69;;;11.47;100.00
3917;BME280;1973;50.518;7.318;2023-04-01T19:56:19;99711.38;;;11.45;100.00
3917;BME280;1973;50.518;7.318;2023-04-01T20:04:41;99734.75;;;11.42;100.00
3917;BME280;1973;50.518;7.318;2023-04-01T20:07:32;99730.56;;;11.40;100.00
3917;BME280;1973;50.518;7.318;2023-04-01T20:10:10;99735.50;;;11.38;100.00
3917;BME280;1973;50.518;7.318;2023-04-01T20:13:05;99746.53;;;11.38;100.00
3917;BME280;1973;50.518;7.318;2023-04-01T20:15:41;99749.75;;;11.35;100.00
3917;BME280;1973;50.518;7.318;2023-04-01T20:18:23;99759.97;;;11.34;100.00
3917;BME280;1973;50.518;7.318;2023-04-01T20:20:59;99759.69;;;11.36;100.00
3917;BME280;1973;50.518;7.318;2023-04-01T20:23:50;99764.63;;;11.34;100.00
3917;BME280;1973;50.518;7.318;2023-04-01T20:26:26;99766.28;;;11.35;100.00
3917;BME280;1973;50.518;7.318;2023-04-01T20:31:41;99768.22;;;11.34;100.00
3917;BME280;1973;50.518;7.318;2023-04-01T20:39:53;99771.09;;;11.28;100.00
3917;BME280;1973;50.518;7.318;2023-04-01T20:45:21;99788.13;;;11.24;100.00
3917;BME280;1973;50.518;7.318;2023-04-01T20:53:50;99795.22;;;11.20;100.00
3917;BME280;1973;50.518;7.318;2023-04-01T20:56:25;99791.38;;;11.21;100.00
3917;BME280;1973;50.518;7.318;2023-04-01T21:07:17;99803.59;;;11.26;100.00